Aviation Digital Data Service (ADDS)

Output produced by METARs form (2257 UTC 20 January 2019)
found at http://www.aviationweather.gov/metar/data/
 
Forecast for: ETNW (WUNSTORF (GER-AF, DE)
Text: TAF ETNW 201720Z 2018/2118 10005KT 5000 BR FEW007
Forecast period: 1800 UTC 20 January 2019 to 1800 UTC 21 January 2019
Forecast type: FROM: standard forecast or significant change
Winds: from the E (100 degrees) at 6 MPH (5 knots; 2.6 m/s)
Visibility: 3 miles (5 km)
Ceiling: at least 12,000 feet AGL
Clouds: few clouds at 700 feet AGL
Weather: BR  (mist)
Text: TEMPO 2018/2021 VRB03KT 2000 BR BKN006
Forecast period: 1800 to 2100 UTC 20 January 2019
Forecast type: TEMPORARY: The following changes expected for less than half the time period
Winds: variable direction winds at 3 MPH (3 knots; 1.5 m/s)
Visibility: 1.24 miles (2.00 km)
Ceiling: 600 feet AGL
Clouds: broken clouds at 600 feet AGL
Weather: BR  (mist)
Text: TEMPO 2021/2111 06005KT 0500 FZFG BKN001 BY ETGL
Forecast period: 2100 UTC 20 January 2019 to 1100 UTC 21 January 2019
Forecast type: TEMPORARY: The following changes expected for less than half the time period
Winds: from the ENE (60 degrees) at 6 MPH (5 knots; 2.6 m/s)
Visibility: 0.31 miles (0.50 km)
Ceiling: 100 feet AGL
Clouds: broken clouds at 100 feet AGL
Weather: FZFG  (freezing fog)